Lumaghi Heights, Illinois
Current Conditions -  °F | °C
As of 6:58 PM on Tuesday 25 Nov 2014 (Local Time) from KBLV Reporting Station
Clear Clear  
Wind Chill: 29°   Ceiling: Unl
Heat Index: 29°   Visibility: 10mi
Dew Point: 25°   Wind: 0mph
Humidity: 85%   Direction: NA
Pressure: 30.18"   Gusts: NA
Location:  38.6902°N, 89.9816°W
Report Text: KBLV 260058Z AUTO 00000KT 10SM CLR M02/M04 A3018 RMK AO2 SLP229 T10181040
Loading
Personal Weather Stations






























Interactive Weather Map New forecast layout! Learn more

10-Day Weather Forecast

Advertisements
Track Severe Weather on mobile